sensor_id;sensor_type;location;lat;lon;timestamp;temperature;humidity
23120;DHT22;11729;50.836;4.330;2024-03-23T00:53:58;9.10;99.90
23120;DHT22;11729;50.836;4.330;2024-03-23T00:56:24;9.20;99.90
23120;DHT22;11729;50.836;4.330;2024-03-23T00:58:50;9.30;99.90
23120;DHT22;11729;50.836;4.330;2024-03-23T01:01:15;9.30;99.90
23120;DHT22;11729;50.836;4.330;2024-03-23T01:03:41;9.30;99.90
23120;DHT22;11729;50.836;4.330;2024-03-23T01:06:07;9.20;99.90
23120;DHT22;11729;50.836;4.330;2024-03-23T01:08:34;9.20;99.90
23120;DHT22;11729;50.836;4.330;2024-03-23T01:11:01;9.20;99.90
23120;DHT22;11729;50.836;4.330;2024-03-23T01:13:27;9.10;99.90
23120;DHT22;11729;50.836;4.330;2024-03-23T01:15:54;9.10;99.90
23120;DHT22;11729;50.836;4.330;2024-03-23T01:18:22;9.10;99.90
23120;DHT22;11729;50.836;4.330;2024-03-23T01:20:48;9.00;99.90
23120;DHT22;11729;50.836;4.330;2024-03-23T01:23:14;9.00;99.90
23120;DHT22;11729;50.836;4.330;2024-03-23T01:25:41;9.00;99.90
23120;DHT22;11729;50.836;4.330;2024-03-23T01:28:07;8.90;99.90
23120;DHT22;11729;50.836;4.330;2024-03-23T01:30:33;8.80;99.90
23120;DHT22;11729;50.836;4.330;2024-03-23T01:32:59;8.60;99.90
23120;DHT22;11729;50.836;4.330;2024-03-23T01:35:25;8.70;99.90
23120;DHT22;11729;50.836;4.330;2024-03-23T01:37:51;8.60;99.90
23120;DHT22;11729;50.836;4.330;2024-03-23T01:40:17;8.70;99.90
23120;DHT22;11729;50.836;4.330;2024-03-23T01:42:55;8.70;99.90
23120;DHT22;11729;50.836;4.330;2024-03-23T01:45:21;8.70;99.90
23120;DHT22;11729;50.836;4.330;2024-03-23T01:47:47;8.70;99.90
23120;DHT22;11729;50.836;4.330;2024-03-23T01:50:13;8.60;99.90
23120;DHT22;11729;50.836;4.330;2024-03-23T01:52:39;8.60;99.90
23120;DHT22;11729;50.836;4.330;2024-03-23T01:55:05;8.60;99.90
23120;DHT22;11729;50.836;4.330;2024-03-23T01:57:31;8.70;99.90
23120;DHT22;11729;50.836;4.330;2024-03-23T01:59:56;8.70;99.90
23120;DHT22;11729;50.836;4.330;2024-03-23T02:02:22;8.70;99.90
23120;DHT22;11729;50.836;4.330;2024-03-23T02:04:48;8.70;99.90
23120;DHT22;11729;50.836;4.330;2024-03-23T02:07:14;8.60;99.90
23120;DHT22;11729;50.836;4.330;2024-03-23T02:09:39;8.70;99.90
23120;DHT22;11729;50.836;4.330;2024-03-23T02:12:05;8.90;99.90
23120;DHT22;11729;50.836;4.330;2024-03-23T02:14:31;8.90;99.90
23120;DHT22;11729;50.836;4.330;2024-03-23T02:16:57;8.90;99.90
23120;DHT22;11729;50.836;4.330;2024-03-23T02:19:24;8.90;99.90
23120;DHT22;11729;50.836;4.330;2024-03-23T02:21:49;8.80;99.90
23120;DHT22;11729;50.836;4.330;2024-03-23T02:24:15;8.90;99.90
23120;DHT22;11729;50.836;4.330;2024-03-23T02:26:41;8.90;99.90
23120;DHT22;11729;50.836;4.330;2024-03-23T02:29:06;8.90;99.90
23120;DHT22;11729;50.836;4.330;2024-03-23T02:31:32;8.70;99.90
23120;DHT22;11729;50.836;4.330;2024-03-23T02:33:58;8.70;99.90
23120;DHT22;11729;50.836;4.330;2024-03-23T02:36:24;8.80;99.90
23120;DHT22;11729;50.836;4.330;2024-03-23T02:38:50;8.90;99.90
23120;DHT22;11729;50.836;4.330;2024-03-23T02:41:16;8.90;99.90
23120;DHT22;11729;50.836;4.330;2024-03-23T02:43:51;8.90;99.90
23120;DHT22;11729;50.836;4.330;2024-03-23T02:46:17;9.00;99.90
23120;DHT22;11729;50.836;4.330;2024-03-23T02:48:43;9.10;99.90
23120;DHT22;11729;50.836;4.330;2024-03-23T02:51:09;9.30;99.90
23120;DHT22;11729;50.836;4.330;2024-03-23T02:53:35;9.30;99.90
23120;DHT22;11729;50.836;4.330;2024-03-23T02:56:02;9.30;99.90
23120;DHT22;11729;50.836;4.330;2024-03-23T02:58:27;9.10;99.90
23120;DHT22;11729;50.836;4.330;2024-03-23T03:00:53;9.00;99.90
23120;DHT22;11729;50.836;4.330;2024-03-23T03:03:19;9.00;99.90
23120;DHT22;11729;50.836;4.330;2024-03-23T03:05:44;9.00;99.90
23120;DHT22;11729;50.836;4.330;2024-03-23T03:08:10;8.90;99.90
23120;DHT22;11729;50.836;4.330;2024-03-23T03:10:36;8.90;99.90
23120;DHT22;11729;50.836;4.330;2024-03-23T03:13:02;8.90;99.90
23120;DHT22;11729;50.836;4.330;2024-03-23T03:15:28;8.90;99.90
23120;DHT22;11729;50.836;4.330;2024-03-23T03:17:54;9.00;99.90
23120;DHT22;11729;50.836;4.330;2024-03-23T03:20:20;9.00;99.90
23120;DHT22;11729;50.836;4.330;2024-03-23T03:22:50;9.00;99.90
23120;DHT22;11729;50.836;4.330;2024-03-23T03:25:18;9.20;99.90
23120;DHT22;11729;50.836;4.330;2024-03-23T03:27:44;9.10;99.90
23120;DHT22;11729;50.836;4.330;2024-03-23T03:30:10;9.10;99.90
23120;DHT22;11729;50.836;4.330;2024-03-23T03:32:36;8.90;99.90
23120;DHT22;11729;50.836;4.330;2024-03-23T03:35:02;8.90;99.90
23120;DHT22;11729;50.836;4.330;2024-03-23T03:37:28;9.10;99.90
23120;DHT22;11729;50.836;4.330;2024-03-23T03:39:54;9.00;99.90
23120;DHT22;11729;50.836;4.330;2024-03-23T03:42:19;8.90;99.90
23120;DHT22;11729;50.836;4.330;2024-03-23T03:44:45;8.70;99.90
23120;DHT22;11729;50.836;4.330;2024-03-23T03:47:10;8.70;99.90
23120;DHT22;11729;50.836;4.330;2024-03-23T03:49:36;8.70;99.90
23120;DHT22;11729;50.836;4.330;2024-03-23T03:52:02;8.60;99.90
23120;DHT22;11729;50.836;4.330;2024-03-23T03:54:28;8.40;99.90
23120;DHT22;11729;50.836;4.330;2024-03-23T03:56:54;8.30;99.90
23120;DHT22;11729;50.836;4.330;2024-03-23T03:59:19;8.30;99.90
23120;DHT22;11729;50.836;4.330;2024-03-23T04:01:46;8.20;99.90
23120;DHT22;11729;50.836;4.330;2024-03-23T04:04:11;8.20;99.90
23120;DHT22;11729;50.836;4.330;2024-03-23T04:06:37;8.30;99.90
23120;DHT22;11729;50.836;4.330;2024-03-23T04:09:03;8.40;99.90
23120;DHT22;11729;50.836;4.330;2024-03-23T04:11:28;8.40;99.90
23120;DHT22;11729;50.836;4.330;2024-03-23T04:13:54;8.50;99.90
23120;DHT22;11729;50.836;4.330;2024-03-23T04:16:31;8.50;99.90
23120;DHT22;11729;50.836;4.330;2024-03-23T04:18:58;8.40;99.90
23120;DHT22;11729;50.836;4.330;2024-03-23T04:21:24;8.60;99.90
23120;DHT22;11729;50.836;4.330;2024-03-23T04:23:50;8.50;99.90
23120;DHT22;11729;50.836;4.330;2024-03-23T04:26:16;8.40;99.90
23120;DHT22;11729;50.836;4.330;2024-03-23T04:28:42;8.50;99.90
23120;DHT22;11729;50.836;4.330;2024-03-23T04:31:08;8.40;99.90
23120;DHT22;11729;50.836;4.330;2024-03-23T04:33:36;8.40;99.90
23120;DHT22;11729;50.836;4.330;2024-03-23T04:36:01;8.40;99.90
23120;DHT22;11729;50.836;4.330;2024-03-23T04:38:28;8.30;99.90
23120;DHT22;11729;50.836;4.330;2024-03-23T04:40:58;8.30;99.90
23120;DHT22;11729;50.836;4.330;2024-03-23T04:43:24;8.40;99.90
23120;DHT22;11729;50.836;4.330;2024-03-23T04:45:50;8.50;99.90
23120;DHT22;11729;50.836;4.330;2024-03-23T04:48:16;8.30;99.90
23120;DHT22;11729;50.836;4.330;2024-03-23T04:50:41;8.20;99.90
23120;DHT22;11729;50.836;4.330;2024-03-23T04:53:07;8.20;99.90
23120;DHT22;11729;50.836;4.330;2024-03-23T04:55:33;8.10;99.90
23120;DHT22;11729;50.836;4.330;2024-03-23T04:57:58;8.00;99.90
23120;DHT22;11729;50.836;4.330;2024-03-23T05:00:25;8.10;99.90
23120;DHT22;11729;50.836;4.330;2024-03-23T05:02:51;8.00;99.90
23120;DHT22;11729;50.836;4.330;2024-03-23T05:05:18;7.90;99.90
23120;DHT22;11729;50.836;4.330;2024-03-23T05:07:44;7.90;99.90
23120;DHT22;11729;50.836;4.330;2024-03-23T05:10:10;7.80;99.90
23120;DHT22;11729;50.836;4.330;2024-03-23T05:12:37;7.80;99.90
23120;DHT22;11729;50.836;4.330;2024-03-23T05:15:07;8.00;99.90
23120;DHT22;11729;50.836;4.330;2024-03-23T05:17:37;7.90;99.90
23120;DHT22;11729;50.836;4.330;2024-03-23T05:20:03;8.10;99.90
23120;DHT22;11729;50.836;4.330;2024-03-23T05:22:29;8.00;99.90
23120;DHT22;11729;50.836;4.330;2024-03-23T05:24:56;8.00;99.90
23120;DHT22;11729;50.836;4.330;2024-03-23T05:27:22;8.10;99.90
23120;DHT22;11729;50.836;4.330;2024-03-23T05:29:48;8.10;99.90
23120;DHT22;11729;50.836;4.330;2024-03-23T05:32:14;8.10;99.90
23120;DHT22;11729;50.836;4.330;2024-03-23T05:34:40;8.00;99.90
23120;DHT22;11729;50.836;4.330;2024-03-23T05:37:05;8.00;99.90
23120;DHT22;11729;50.836;4.330;2024-03-23T05:39:31;8.20;99.90
23120;DHT22;11729;50.836;4.330;2024-03-23T05:41:57;8.20;99.90
23120;DHT22;11729;50.836;4.330;2024-03-23T05:44:22;8.20;99.90
23120;DHT22;11729;50.836;4.330;2024-03-23T05:46:48;8.10;99.90
23120;DHT22;11729;50.836;4.330;2024-03-23T05:49:16;8.20;99.90
23120;DHT22;11729;50.836;4.330;2024-03-23T05:51:42;8.10;99.90
23120;DHT22;11729;50.836;4.330;2024-03-23T05:54:08;7.90;99.90
23120;DHT22;11729;50.836;4.330;2024-03-23T05:56:33;8.10;99.90
23120;DHT22;11729;50.836;4.330;2024-03-23T05:58:59;8.00;99.90
23120;DHT22;11729;50.836;4.330;2024-03-23T06:01:25;8.00;99.90
23120;DHT22;11729;50.836;4.330;2024-03-23T06:03:54;7.90;99.90
23120;DHT22;11729;50.836;4.330;2024-03-23T06:06:20;8.00;99.90
23120;DHT22;11729;50.836;4.330;2024-03-23T06:08:45;8.20;99.90
23120;DHT22;11729;50.836;4.330;2024-03-23T06:11:11;8.30;99.90
23120;DHT22;11729;50.836;4.330;2024-03-23T06:13:36;8.40;99.90
23120;DHT22;11729;50.836;4.330;2024-03-23T06:16:02;8.30;99.90
23120;DHT22;11729;50.836;4.330;2024-03-23T06:18:28;8.50;99.90
23120;DHT22;11729;50.836;4.330;2024-03-23T06:20:53;8.40;99.90
23120;DHT22;11729;50.836;4.330;2024-03-23T06:23:19;8.50;99.90
23120;DHT22;11729;50.836;4.330;2024-03-23T06:25:46;8.40;99.90
23120;DHT22;11729;50.836;4.330;2024-03-23T06:28:13;8.20;99.90
23120;DHT22;11729;50.836;4.330;2024-03-23T06:30:39;8.30;99.90
23120;DHT22;11729;50.836;4.330;2024-03-23T06:33:05;8.30;99.90
23120;DHT22;11729;50.836;4.330;2024-03-23T06:35:34;8.30;99.90
23120;DHT22;11729;50.836;4.330;2024-03-23T06:37:59;8.30;99.90
23120;DHT22;11729;50.836;4.330;2024-03-23T06:40:25;8.30;99.90
23120;DHT22;11729;50.836;4.330;2024-03-23T06:42:51;8.30;99.90
23120;DHT22;11729;50.836;4.330;2024-03-23T06:45:17;8.70;99.90
23120;DHT22;11729;50.836;4.330;2024-03-23T06:47:48;8.80;99.90
23120;DHT22;11729;50.836;4.330;2024-03-23T06:50:15;8.80;99.90
23120;DHT22;11729;50.836;4.330;2024-03-23T06:52:40;8.90;99.90
23120;DHT22;11729;50.836;4.330;2024-03-23T06:55:06;8.80;99.90
23120;DHT22;11729;50.836;4.330;2024-03-23T06:57:32;8.60;99.90
23120;DHT22;11729;50.836;4.330;2024-03-23T06:59:57;8.70;99.90
23120;DHT22;11729;50.836;4.330;2024-03-23T07:02:25;8.50;99.90
23120;DHT22;11729;50.836;4.330;2024-03-23T07:04:50;8.50;99.90
23120;DHT22;11729;50.836;4.330;2024-03-23T07:07:16;8.20;99.90
23120;DHT22;11729;50.836;4.330;2024-03-23T07:09:47;8.20;99.90
23120;DHT22;11729;50.836;4.330;2024-03-23T07:12:13;8.30;99.90
23120;DHT22;11729;50.836;4.330;2024-03-23T07:14:39;8.20;99.90
23120;DHT22;11729;50.836;4.330;2024-03-23T07:17:04;7.90;99.90
23120;DHT22;11729;50.836;4.330;2024-03-23T07:19:30;8.00;99.90
23120;DHT22;11729;50.836;4.330;2024-03-23T07:21:56;8.00;99.90
23120;DHT22;11729;50.836;4.330;2024-03-23T07:24:21;7.80;99.90
23120;DHT22;11729;50.836;4.330;2024-03-23T07:26:48;7.70;99.90
23120;DHT22;11729;50.836;4.330;2024-03-23T07:29:14;7.60;99.90
23120;DHT22;11729;50.836;4.330;2024-03-23T07:31:40;8.10;99.90
23120;DHT22;11729;50.836;4.330;2024-03-23T07:34:08;9.00;99.90
23120;DHT22;11729;50.836;4.330;2024-03-23T07:36:34;9.40;99.90
23120;DHT22;11729;50.836;4.330;2024-03-23T07:39:01;9.70;99.90
23120;DHT22;11729;50.836;4.330;2024-03-23T07:41:26;10.10;99.90
23120;DHT22;11729;50.836;4.330;2024-03-23T07:43:53;10.60;99.90
23120;DHT22;11729;50.836;4.330;2024-03-23T07:46:20;11.10;99.90
23120;DHT22;11729;50.836;4.330;2024-03-23T07:48:46;11.10;99.90
23120;DHT22;11729;50.836;4.330;2024-03-23T07:51:21;11.20;99.90
23120;DHT22;11729;50.836;4.330;2024-03-23T07:53:47;11.70;99.90
23120;DHT22;11729;50.836;4.330;2024-03-23T07:56:14;12.30;99.90
23120;DHT22;11729;50.836;4.330;2024-03-23T07:58:40;11.70;99.90
23120;DHT22;11729;50.836;4.330;2024-03-23T08:01:15;11.90;99.90
23120;DHT22;11729;50.836;4.330;2024-03-23T08:03:42;11.60;99.90
23120;DHT22;11729;50.836;4.330;2024-03-23T08:06:13;11.30;99.90
23120;DHT22;11729;50.836;4.330;2024-03-23T08:08:40;10.60;99.90
23120;DHT22;11729;50.836;4.330;2024-03-23T08:11:06;10.70;99.90
23120;DHT22;11729;50.836;4.330;2024-03-23T08:13:32;10.70;99.90
23120;DHT22;11729;50.836;4.330;2024-03-23T08:15:59;10.60;99.90
23120;DHT22;11729;50.836;4.330;2024-03-23T08:18:25;10.30;99.90
23120;DHT22;11729;50.836;4.330;2024-03-23T08:20:58;10.30;99.90
23120;DHT22;11729;50.836;4.330;2024-03-23T08:23:34;10.70;99.90
23120;DHT22;11729;50.836;4.330;2024-03-23T08:26:03;11.20;99.90
23120;DHT22;11729;50.836;4.330;2024-03-23T08:28:29;11.00;99.90
23120;DHT22;11729;50.836;4.330;2024-03-23T08:30:55;11.00;99.90
23120;DHT22;11729;50.836;4.330;2024-03-23T08:33:21;10.70;99.90
23120;DHT22;11729;50.836;4.330;2024-03-23T08:35:57;10.40;99.90
23120;DHT22;11729;50.836;4.330;2024-03-23T08:38:25;9.90;99.90
23120;DHT22;11729;50.836;4.330;2024-03-23T08:41:04;10.20;99.90
23120;DHT22;11729;50.836;4.330;2024-03-23T08:43:35;10.00;99.90
23120;DHT22;11729;50.836;4.330;2024-03-23T08:46:10;10.10;99.90
23120;DHT22;11729;50.836;4.330;2024-03-23T08:48:39;10.20;99.90
23120;DHT22;11729;50.836;4.330;2024-03-23T08:51:06;10.20;99.90
23120;DHT22;11729;50.836;4.330;2024-03-23T08:53:33;10.20;99.90
23120;DHT22;11729;50.836;4.330;2024-03-23T08:56:00;10.50;99.90
23120;DHT22;11729;50.836;4.330;2024-03-23T08:58:28;10.60;99.90
23120;DHT22;11729;50.836;4.330;2024-03-23T09:00:55;11.20;99.90
23120;DHT22;11729;50.836;4.330;2024-03-23T09:03:22;12.20;99.90
23120;DHT22;11729;50.836;4.330;2024-03-23T09:05:49;12.80;99.90
23120;DHT22;11729;50.836;4.330;2024-03-23T09:08:14;12.80;99.90
23120;DHT22;11729;50.836;4.330;2024-03-23T09:10:40;12.40;99.90
23120;DHT22;11729;50.836;4.330;2024-03-23T09:13:06;12.00;99.90
23120;DHT22;11729;50.836;4.330;2024-03-23T09:15:37;11.80;99.90
23120;DHT22;11729;50.836;4.330;2024-03-23T09:18:03;11.60;99.90
23120;DHT22;11729;50.836;4.330;2024-03-23T09:20:32;11.20;99.90
23120;DHT22;11729;50.836;4.330;2024-03-23T09:22:58;11.10;99.90
23120;DHT22;11729;50.836;4.330;2024-03-23T09:25:24;11.60;99.90
23120;DHT22;11729;50.836;4.330;2024-03-23T09:27:50;12.00;99.90
23120;DHT22;11729;50.836;4.330;2024-03-23T09:30:16;11.90;99.90
23120;DHT22;11729;50.836;4.330;2024-03-23T09:32:44;11.60;99.90
23120;DHT22;11729;50.836;4.330;2024-03-23T09:35:10;11.50;99.90
23120;DHT22;11729;50.836;4.330;2024-03-23T09:37:36;11.50;99.90
23120;DHT22;11729;50.836;4.330;2024-03-23T09:40:04;11.90;99.90
23120;DHT22;11729;50.836;4.330;2024-03-23T09:42:30;12.90;99.90
23120;DHT22;11729;50.836;4.330;2024-03-23T09:44:59;13.10;99.90
23120;DHT22;11729;50.836;4.330;2024-03-23T09:47:25;13.60;99.90
23120;DHT22;11729;50.836;4.330;2024-03-23T09:49:51;14.60;99.90
23120;DHT22;11729;50.836;4.330;2024-03-23T09:52:18;15.20;99.90
23120;DHT22;11729;50.836;4.330;2024-03-23T09:54:43;14.60;99.90
23120;DHT22;11729;50.836;4.330;2024-03-23T09:57:10;13.40;99.90
23120;DHT22;11729;50.836;4.330;2024-03-23T09:59:35;12.50;99.90
23120;DHT22;11729;50.836;4.330;2024-03-23T10:02:02;12.10;99.90
23120;DHT22;11729;50.836;4.330;2024-03-23T10:04:41;12.10;99.90
23120;DHT22;11729;50.836;4.330;2024-03-23T10:07:20;12.00;99.90
23120;DHT22;11729;50.836;4.330;2024-03-23T10:09:47;13.00;99.90
23120;DHT22;11729;50.836;4.330;2024-03-23T10:12:18;12.80;99.90
23120;DHT22;11729;50.836;4.330;2024-03-23T10:14:44;12.30;99.90
23120;DHT22;11729;50.836;4.330;2024-03-23T10:19:40;12.50;99.90
23120;DHT22;11729;50.836;4.330;2024-03-23T10:22:06;12.60;99.90
23120;DHT22;11729;50.836;4.330;2024-03-23T10:24:32;12.70;99.90
23120;DHT22;11729;50.836;4.330;2024-03-23T10:26:58;13.10;99.90
23120;DHT22;11729;50.836;4.330;2024-03-23T10:29:23;13.50;99.90
23120;DHT22;11729;50.836;4.330;2024-03-23T10:32:07;13.70;99.90
23120;DHT22;11729;50.836;4.330;2024-03-23T10:34:34;14.30;99.90
23120;DHT22;11729;50.836;4.330;2024-03-23T10:37:02;14.50;99.90
23120;DHT22;11729;50.836;4.330;2024-03-23T10:39:33;14.80;99.90
23120;DHT22;11729;50.836;4.330;2024-03-23T10:42:07;15.00;99.90
23120;DHT22;11729;50.836;4.330;2024-03-23T10:44:35;15.40;99.90
23120;DHT22;11729;50.836;4.330;2024-03-23T10:47:01;15.50;99.90
23120;DHT22;11729;50.836;4.330;2024-03-23T10:49:30;14.90;99.90
23120;DHT22;11729;50.836;4.330;2024-03-23T10:52:04;15.20;99.90
23120;DHT22;11729;50.836;4.330;2024-03-23T10:54:30;15.60;99.90
23120;DHT22;11729;50.836;4.330;2024-03-23T10:57:01;16.00;99.90
23120;DHT22;11729;50.836;4.330;2024-03-23T10:59:29;16.50;97.30
23120;DHT22;11729;50.836;4.330;2024-03-23T11:02:00;16.60;99.10
23120;DHT22;11729;50.836;4.330;2024-03-23T11:04:37;16.90;95.20
23120;DHT22;11729;50.836;4.330;2024-03-23T11:09:52;16.20;94.80
23120;DHT22;11729;50.836;4.330;2024-03-23T11:14:56;15.70;95.00
23120;DHT22;11729;50.836;4.330;2024-03-23T11:17:23;15.30;94.60
23120;DHT22;11729;50.836;4.330;2024-03-23T11:19:57;15.40;94.50
23120;DHT22;11729;50.836;4.330;2024-03-23T11:27:41;14.70;96.30
23120;DHT22;11729;50.836;4.330;2024-03-23T11:30:27;15.00;95.50
23120;DHT22;11729;50.836;4.330;2024-03-23T11:32:58;14.50;96.40
23120;DHT22;11729;50.836;4.330;2024-03-23T11:35:33;14.20;98.10
23120;DHT22;11729;50.836;4.330;2024-03-23T11:40:33;14.40;98.20
23120;DHT22;11729;50.836;4.330;2024-03-23T11:43:01;14.50;98.40
23120;DHT22;11729;50.836;4.330;2024-03-23T11:45:42;14.40;98.00
23120;DHT22;11729;50.836;4.330;2024-03-23T11:50:36;14.10;99.90
23120;DHT22;11729;50.836;4.330;2024-03-23T11:55:55;14.30;99.90
23120;DHT22;11729;50.836;4.330;2024-03-23T11:58:26;14.40;99.80
23120;DHT22;11729;50.836;4.330;2024-03-23T12:01:02;14.50;99.90
23120;DHT22;11729;50.836;4.330;2024-03-23T12:03:29;14.40;99.90
23120;DHT22;11729;50.836;4.330;2024-03-23T12:05:59;14.30;99.90
23120;DHT22;11729;50.836;4.330;2024-03-23T12:08:31;14.00;99.90
23120;DHT22;11729;50.836;4.330;2024-03-23T12:11:24;13.80;99.90
23120;DHT22;11729;50.836;4.330;2024-03-23T12:13:51;13.40;99.90
23120;DHT22;11729;50.836;4.330;2024-03-23T12:16:19;13.40;99.90
23120;DHT22;11729;50.836;4.330;2024-03-23T12:18:49;13.70;99.90
23120;DHT22;11729;50.836;4.330;2024-03-23T12:21:15;13.80;99.90
23120;DHT22;11729;50.836;4.330;2024-03-23T12:23:42;13.10;99.90
23120;DHT22;11729;50.836;4.330;2024-03-23T12:26:11;12.50;99.90
23120;DHT22;11729;50.836;4.330;2024-03-23T12:28:37;12.20;99.90
23120;DHT22;11729;50.836;4.330;2024-03-23T12:31:03;11.70;99.90
23120;DHT22;11729;50.836;4.330;2024-03-23T12:33:30;11.40;99.90
23120;DHT22;11729;50.836;4.330;2024-03-23T12:35:56;11.50;99.90
23120;DHT22;11729;50.836;4.330;2024-03-23T12:38:22;12.00;99.90
23120;DHT22;11729;50.836;4.330;2024-03-23T12:40:48;12.90;99.90
23120;DHT22;11729;50.836;4.330;2024-03-23T12:43:14;14.00;99.90
23120;DHT22;11729;50.836;4.330;2024-03-23T12:45:40;15.40;99.90
23120;DHT22;11729;50.836;4.330;2024-03-23T12:48:06;16.20;96.20
23120;DHT22;11729;50.836;4.330;2024-03-23T12:50:32;16.60;94.50
23120;DHT22;11729;50.836;4.330;2024-03-23T12:52:58;17.10;94.60
23120;DHT22;11729;50.836;4.330;2024-03-23T12:55:23;16.50;91.40
23120;DHT22;11729;50.836;4.330;2024-03-23T12:57:49;15.60;91.00
23120;DHT22;11729;50.836;4.330;2024-03-23T13:00:16;15.50;92.00
23120;DHT22;11729;50.836;4.330;2024-03-23T13:02:42;15.70;91.50
23120;DHT22;11729;50.836;4.330;2024-03-23T13:05:10;16.30;90.80
23120;DHT22;11729;50.836;4.330;2024-03-23T13:07:38;16.90;90.40
23120;DHT22;11729;50.836;4.330;2024-03-23T13:10:05;17.20;84.40
23120;DHT22;11729;50.836;4.330;2024-03-23T13:12:31;17.40;81.70
23120;DHT22;11729;50.836;4.330;2024-03-23T13:14:58;17.30;83.40
23120;DHT22;11729;50.836;4.330;2024-03-23T13:17:24;17.70;84.20
23120;DHT22;11729;50.836;4.330;2024-03-23T13:19:50;16.70;81.30
23120;DHT22;11729;50.836;4.330;2024-03-23T13:22:16;15.00;87.30
23120;DHT22;11729;50.836;4.330;2024-03-23T13:24:42;14.00;93.40
23120;DHT22;11729;50.836;4.330;2024-03-23T13:27:08;13.90;94.20
23120;DHT22;11729;50.836;4.330;2024-03-23T13:29:34;14.50;92.40
23120;DHT22;11729;50.836;4.330;2024-03-23T13:32:01;15.30;92.60
23120;DHT22;11729;50.836;4.330;2024-03-23T13:34:27;16.00;91.60
23120;DHT22;11729;50.836;4.330;2024-03-23T13:36:55;16.80;89.20
23120;DHT22;11729;50.836;4.330;2024-03-23T13:39:21;18.10;86.00
23120;DHT22;11729;50.836;4.330;2024-03-23T13:41:47;18.50;80.10
23120;DHT22;11729;50.836;4.330;2024-03-23T13:44:13;18.50;77.20
23120;DHT22;11729;50.836;4.330;2024-03-23T13:46:43;18.40;77.10
23120;DHT22;11729;50.836;4.330;2024-03-23T13:49:31;17.70;76.80
23120;DHT22;11729;50.836;4.330;2024-03-23T13:51:58;17.30;76.80
23120;DHT22;11729;50.836;4.330;2024-03-23T13:54:27;17.40;81.00
23120;DHT22;11729;50.836;4.330;2024-03-23T13:56:55;17.70;80.70
23120;DHT22;11729;50.836;4.330;2024-03-23T13:59:21;17.30;81.30
23120;DHT22;11729;50.836;4.330;2024-03-23T14:01:49;17.50;81.40
23120;DHT22;11729;50.836;4.330;2024-03-23T14:04:15;16.30;83.10
23120;DHT22;11729;50.836;4.330;2024-03-23T14:06:42;15.70;90.20
23120;DHT22;11729;50.836;4.330;2024-03-23T14:09:14;15.50;90.60
23120;DHT22;11729;50.836;4.330;2024-03-23T14:11:43;14.20;93.30
23120;DHT22;11729;50.836;4.330;2024-03-23T14:14:09;14.30;94.80
23120;DHT22;11729;50.836;4.330;2024-03-23T14:16:35;14.10;95.30
23120;DHT22;11729;50.836;4.330;2024-03-23T14:19:00;13.50;94.70
23120;DHT22;11729;50.836;4.330;2024-03-23T14:21:26;13.30;96.60
23120;DHT22;11729;50.836;4.330;2024-03-23T14:23:52;13.00;97.70
23120;DHT22;11729;50.836;4.330;2024-03-23T14:26:19;12.80;99.40
23120;DHT22;11729;50.836;4.330;2024-03-23T14:28:45;12.70;99.60
23120;DHT22;11729;50.836;4.330;2024-03-23T14:31:11;12.70;99.90
23120;DHT22;11729;50.836;4.330;2024-03-23T14:33:39;12.50;99.90
23120;DHT22;11729;50.836;4.330;2024-03-23T14:36:10;12.40;99.90
23120;DHT22;11729;50.836;4.330;2024-03-23T14:38:40;12.40;99.90
23120;DHT22;11729;50.836;4.330;2024-03-23T14:41:06;12.20;99.90
23120;DHT22;11729;50.836;4.330;2024-03-23T14:43:32;12.00;99.90
23120;DHT22;11729;50.836;4.330;2024-03-23T14:46:14;11.90;99.90
23120;DHT22;11729;50.836;4.330;2024-03-23T14:48:42;12.20;99.90
23120;DHT22;11729;50.836;4.330;2024-03-23T14:51:08;12.10;99.90
23120;DHT22;11729;50.836;4.330;2024-03-23T14:53:36;12.20;99.90
23120;DHT22;11729;50.836;4.330;2024-03-23T14:56:03;12.20;99.90
23120;DHT22;11729;50.836;4.330;2024-03-23T14:58:29;12.50;99.90
23120;DHT22;11729;50.836;4.330;2024-03-23T15:01:02;12.20;99.90
23120;DHT22;11729;50.836;4.330;2024-03-23T15:03:27;12.30;99.90
23120;DHT22;11729;50.836;4.330;2024-03-23T15:05:58;12.20;99.90
23120;DHT22;11729;50.836;4.330;2024-03-23T15:08:24;12.30;99.90
23120;DHT22;11729;50.836;4.330;2024-03-23T15:10:50;12.40;99.90
23120;DHT22;11729;50.836;4.330;2024-03-23T15:13:16;12.40;99.90
23120;DHT22;11729;50.836;4.330;2024-03-23T15:15:43;12.10;99.90
23120;DHT22;11729;50.836;4.330;2024-03-23T15:18:13;11.90;99.90
23120;DHT22;11729;50.836;4.330;2024-03-23T15:20:41;12.10;99.90
23120;DHT22;11729;50.836;4.330;2024-03-23T15:23:09;12.20;99.90
23120;DHT22;11729;50.836;4.330;2024-03-23T15:25:34;12.30;99.90
23120;DHT22;11729;50.836;4.330;2024-03-23T15:28:00;12.50;99.90
23120;DHT22;11729;50.836;4.330;2024-03-23T15:30:28;12.50;99.90
23120;DHT22;11729;50.836;4.330;2024-03-23T15:32:55;12.50;99.90
23120;DHT22;11729;50.836;4.330;2024-03-23T15:35:20;12.50;99.90
23120;DHT22;11729;50.836;4.330;2024-03-23T15:37:49;12.20;99.90
23120;DHT22;11729;50.836;4.330;2024-03-23T15:40:14;11.80;99.90
23120;DHT22;11729;50.836;4.330;2024-03-23T15:42:40;11.80;99.90
23120;DHT22;11729;50.836;4.330;2024-03-23T15:45:07;11.90;99.90
23120;DHT22;11729;50.836;4.330;2024-03-23T15:47:34;12.00;99.90
23120;DHT22;11729;50.836;4.330;2024-03-23T15:50:00;11.80;99.90
23120;DHT22;11729;50.836;4.330;2024-03-23T15:52:26;12.10;99.90
23120;DHT22;11729;50.836;4.330;2024-03-23T15:54:51;12.10;99.90
23120;DHT22;11729;50.836;4.330;2024-03-23T15:57:18;11.80;99.90
23120;DHT22;11729;50.836;4.330;2024-03-23T15:59:49;11.70;99.90
23120;DHT22;11729;50.836;4.330;2024-03-23T16:02:15;11.70;99.90
23120;DHT22;11729;50.836;4.330;2024-03-23T16:04:41;11.80;99.90
23120;DHT22;11729;50.836;4.330;2024-03-23T16:07:07;11.90;99.90
23120;DHT22;11729;50.836;4.330;2024-03-23T16:09:32;12.20;99.90
23120;DHT22;11729;50.836;4.330;2024-03-23T16:11:58;12.40;99.90
23120;DHT22;11729;50.836;4.330;2024-03-23T16:14:24;12.30;99.90
23120;DHT22;11729;50.836;4.330;2024-03-23T16:16:49;12.10;99.90
23120;DHT22;11729;50.836;4.330;2024-03-23T16:19:15;12.20;99.10
23120;DHT22;11729;50.836;4.330;2024-03-23T16:21:41;11.90;99.70
23120;DHT22;11729;50.836;4.330;2024-03-23T16:24:07;11.90;99.80
23120;DHT22;11729;50.836;4.330;2024-03-23T16:26:34;12.00;99.80
23120;DHT22;11729;50.836;4.330;2024-03-23T16:28:59;11.90;99.60
23120;DHT22;11729;50.836;4.330;2024-03-23T16:31:25;11.80;99.90
23120;DHT22;11729;50.836;4.330;2024-03-23T16:33:51;11.70;99.90
23120;DHT22;11729;50.836;4.330;2024-03-23T16:36:18;11.80;99.90
23120;DHT22;11729;50.836;4.330;2024-03-23T16:38:44;11.90;99.90
23120;DHT22;11729;50.836;4.330;2024-03-23T16:41:12;11.70;99.90
23120;DHT22;11729;50.836;4.330;2024-03-23T16:43:44;11.70;99.30
23120;DHT22;11729;50.836;4.330;2024-03-23T16:46:11;11.50;99.30
23120;DHT22;11729;50.836;4.330;2024-03-23T16:48:38;11.40;99.90
23120;DHT22;11729;50.836;4.330;2024-03-23T16:51:25;11.50;99.90